Time,TemperatureF,DewpointF,PressureIn,WindDirection,WindDirectionDegrees,WindSpeedMPH,WindSpeedGustMPH,Humidity,HourlyPrecipIn,Conditions,Clouds,dailyrainin,SoftwareType,DateUTC
2013-10-31 00:07:00,48.6,43.7,30.24,West,270,0.0,-999.0,83,-99.99,,,0.00,Acu-Link.com,2013-10-31 07:07:00,
2013-10-31 00:22:00,48.9,43.3,30.24,West,270,0.0,-999.0,81,-99.99,,,0.00,Acu-Link.com,2013-10-31 07:22:00,
2013-10-31 00:37:00,48.2,42.3,30.24,West,270,2.2,-999.0,80,-99.99,,,0.00,Acu-Link.com,2013-10-31 07:37:00,
2013-10-31 00:52:00,48.2,42.6,30.24,West,270,0.0,-999.0,81,-99.99,,,0.00,Acu-Link.com,2013-10-31 07:52:00,
2013-10-31 01:08:00,47.8,41.9,30.24,West,270,0.0,-999.0,80,-99.99,,,0.00,Acu-Link.com,2013-10-31 08:08:00,
2013-10-31 01:23:00,47.5,41.6,30.24,West,270,1.7,-999.0,80,-99.99,,,0.00,Acu-Link.com,2013-10-31 08:23:00,
2013-10-31 01:38:00,46.9,41.4,30.24,West,270,0.0,-999.0,81,-99.99,,,0.00,Acu-Link.com,2013-10-31 08:38:00,
2013-10-31 01:53:00,46.0,40.8,30.23,West,270,0.0,-999.0,82,-99.99,,,0.00,Acu-Link.com,2013-10-31 08:53:00,
2013-10-31 02:08:00,45.3,41.1,30.24,West,270,0.0,-999.0,85,-99.99,,,0.00,Acu-Link.com,2013-10-31 09:08:00,
2013-10-31 02:24:00,45.0,41.4,30.25,West,270,0.0,-999.0,87,-99.99,,,0.00,Acu-Link.com,2013-10-31 09:24:00,
2013-10-31 02:39:00,45.0,41.4,30.24,West,270,0.0,-999.0,87,-99.99,,,0.00,Acu-Link.com,2013-10-31 09:39:00,
2013-10-31 02:54:00,44.8,41.2,30.24,West,270,0.0,-999.0,87,-99.99,,,0.00,Acu-Link.com,2013-10-31 09:54:00,
2013-10-31 03:09:00,43.9,40.6,30.24,West,270,0.0,-999.0,88,-99.99,,,0.00,Acu-Link.com,2013-10-31 10:09:00,
2013-10-31 03:24:00,43.5,41.1,30.27,West,270,0.0,-999.0,91,-99.99,,,0.00,Acu-Link.com,2013-10-31 10:24:00,
2013-10-31 03:40:00,43.7,41.2,30.29,West,270,0.0,-999.0,91,-99.99,,,0.00,Acu-Link.com,2013-10-31 10:40:00,
2013-10-31 03:55:00,43.0,40.6,30.29,West,270,0.0,-999.0,91,-99.99,,,0.00,Acu-Link.com,2013-10-31 10:55:00,
2013-10-31 04:10:00,43.2,41.0,30.28,West,270,0.0,-999.0,92,-99.99,,,0.00,Acu-Link.com,2013-10-31 11:10:00,
2013-10-31 04:25:00,42.6,39.9,30.28,West,270,0.0,-999.0,90,-99.99,,,0.00,Acu-Link.com,2013-10-31 11:25:00,
2013-10-31 04:40:00,42.4,40.2,30.28,West,270,0.0,-999.0,92,-99.99,,,0.00,Acu-Link.com,2013-10-31 11:40:00,
2013-10-31 04:55:00,43.3,41.4,30.29,West,270,0.0,-999.0,93,-99.99,,,0.00,Acu-Link.com,2013-10-31 11:55:00,
2013-10-31 05:11:00,43.2,41.0,30.30,West,270,0.0,-999.0,92,-99.99,,,0.00,Acu-Link.com,2013-10-31 12:11:00,
2013-10-31 05:26:00,42.3,40.1,30.30,West,270,0.0,-999.0,92,-99.99,,,0.00,Acu-Link.com,2013-10-31 12:26:00,
2013-10-31 05:41:00,41.5,39.9,30.30,West,270,0.0,-999.0,94,-99.99,,,0.00,Acu-Link.com,2013-10-31 12:41:00,
2013-10-31 05:56:00,41.5,40.2,30.31,West,270,0.0,-999.0,95,-99.99,,,0.00,Acu-Link.com,2013-10-31 12:56:00,
2013-10-31 06:12:00,41.5,40.4,30.31,West,270,0.0,-999.0,96,-99.99,,,0.00,Acu-Link.com,2013-10-31 13:12:00,
2013-10-31 06:27:00,41.2,39.9,30.31,West,270,0.0,-999.0,95,-99.99,,,0.00,Acu-Link.com,2013-10-31 13:27:00,
2013-10-31 06:42:00,40.8,39.5,30.31,West,270,0.0,-999.0,95,-99.99,,,0.00,Acu-Link.com,2013-10-31 13:42:00,
2013-10-31 06:58:00,40.8,39.5,30.32,West,270,0.0,-999.0,95,-99.99,,,0.00,Acu-Link.com,2013-10-31 13:58:00,
2013-10-31 07:13:00,40.3,39.0,30.32,West,270,0.0,-999.0,95,-99.99,,,0.00,Acu-Link.com,2013-10-31 14:13:00,
2013-10-31 07:28:00,40.5,39.7,30.32,West,270,1.7,-999.0,97,-99.99,,,0.00,Acu-Link.com,2013-10-31 14:28:00,
2013-10-31 07:43:00,40.8,40.3,30.32,West,270,0.0,-999.0,98,-99.99,,,0.00,Acu-Link.com,2013-10-31 14:43:00,
2013-10-31 07:58:00,41.4,40.9,30.33,West,270,0.0,-999.0,98,-99.99,,,0.00,Acu-Link.com,2013-10-31 14:58:00,
2013-10-31 08:14:00,43.0,41.9,30.34,West,270,1.1,-999.0,96,-99.99,,,0.00,Acu-Link.com,2013-10-31 15:14:00,
2013-10-31 08:29:00,44.4,42.8,30.34,West,270,0.0,-999.0,94,-99.99,,,0.00,Acu-Link.com,2013-10-31 15:29:00,
2013-10-31 08:44:00,45.9,42.8,30.34,West,270,0.0,-999.0,89,-99.99,,,0.00,Acu-Link.com,2013-10-31 15:44:00,
2013-10-31 08:59:00,47.5,43.8,30.35,West,270,0.0,-999.0,87,-99.99,,,0.00,Acu-Link.com,2013-10-31 15:59:00,
2013-10-31 09:14:00,49.3,45.0,30.34,West,270,0.0,-999.0,85,-99.99,,,0.00,Acu-Link.com,2013-10-31 16:14:00,
2013-10-31 09:29:00,50.5,45.2,30.34,West,270,0.0,-999.0,82,-99.99,,,0.00,Acu-Link.com,2013-10-31 16:29:00,
2013-10-31 09:45:00,52.0,45.4,30.34,West,270,0.0,-999.0,78,-99.99,,,0.00,Acu-Link.com,2013-10-31 16:45:00,
2013-10-31 10:00:00,56.3,46.6,30.34,West,270,1.7,-999.0,70,-99.99,,,0.00,Acu-Link.com,2013-10-31 17:00:00,
2013-10-31 10:15:00,55.8,46.5,30.33,West,270,1.1,-999.0,71,-99.99,,,0.00,Acu-Link.com,2013-10-31 17:15:00,
2013-10-31 10:30:00,57.9,47.0,30.33,SW,225,2.7,-999.0,67,-99.99,,,0.00,Acu-Link.com,2013-10-31 17:30:00,
2013-10-31 10:46:00,59.0,47.7,30.32,South,180,2.7,-999.0,66,-99.99,,,0.00,Acu-Link.com,2013-10-31 17:46:00,
2013-10-31 11:01:00,61.7,47.7,30.32,South,180,3.7,-999.0,60,-99.99,,,0.00,Acu-Link.com,2013-10-31 18:01:00,
2013-10-31 11:16:00,61.2,47.2,30.31,SE,135,2.7,-999.0,60,-99.99,,,0.00,Acu-Link.com,2013-10-31 18:16:00,
2013-10-31 11:31:00,61.3,46.4,30.31,WSW,247,2.7,-999.0,58,-99.99,,,0.00,Acu-Link.com,2013-10-31 18:31:00,
2013-10-31 11:46:00,63.9,47.9,30.30,SSE,157,0.0,-999.0,56,-99.99,,,0.00,Acu-Link.com,2013-10-31 18:46:00,
2013-10-31 12:02:00,65.8,47.7,30.29,ESE,112,1.7,-999.0,52,-99.99,,,0.00,Acu-Link.com,2013-10-31 19:02:00,
2013-10-31 12:17:00,65.3,47.2,30.29,SW,225,3.2,-999.0,52,-99.99,,,0.00,Acu-Link.com,2013-10-31 19:17:00,
2013-10-31 12:32:00,66.0,46.8,30.28,South,180,2.2,-999.0,50,-99.99,,,0.00,Acu-Link.com,2013-10-31 19:32:00,
2013-10-31 12:48:00,66.4,46.7,30.27,West,270,3.2,-999.0,49,-99.99,,,0.00,Acu-Link.com,2013-10-31 19:48:00,
2013-10-31 13:03:00,68.2,47.2,30.26,WSW,247,2.2,-999.0,47,-99.99,,,0.00,Acu-Link.com,2013-10-31 20:03:00,
2013-10-31 13:18:00,69.1,48.0,30.26,SSW,202,3.7,-999.0,47,-99.99,,,0.00,Acu-Link.com,2013-10-31 20:18:00,
2013-10-31 13:33:00,68.9,47.3,30.25,West,270,1.1,-999.0,46,-99.99,,,0.00,Acu-Link.com,2013-10-31 20:33:00,
2013-10-31 13:48:00,69.8,46.9,30.24,NE,45,1.7,-999.0,44,-99.99,,,0.00,Acu-Link.com,2013-10-31 20:48:00,
2013-10-31 14:03:00,69.4,47.1,30.23,West,270,2.2,-999.0,45,-99.99,,,0.00,Acu-Link.com,2013-10-31 21:03:00,
2013-10-31 14:19:00,70.9,47.9,30.22,NNW,337,3.7,-999.0,44,-99.99,,,0.00,Acu-Link.com,2013-10-31 21:19:00,
2013-10-31 14:34:00,70.9,47.9,30.22,West,270,2.7,-999.0,44,-99.99,,,0.00,Acu-Link.com,2013-10-31 21:34:00,
2013-10-31 14:49:00,72.0,48.3,30.21,East,90,3.7,-999.0,43,-99.99,,,0.00,Acu-Link.com,2013-10-31 21:49:00,
2013-10-31 15:04:00,72.0,48.3,30.20,NE,45,3.7,-999.0,43,-99.99,,,0.00,Acu-Link.com,2013-10-31 22:04:00,
2013-10-31 15:20:00,71.2,47.5,30.20,NNE,22,2.2,-999.0,43,-99.99,,,0.00,Acu-Link.com,2013-10-31 22:20:00,
2013-10-31 15:35:00,72.5,48.7,30.19,NW,315,3.2,-999.0,43,-99.99,,,0.00,Acu-Link.com,2013-10-31 22:35:00,
2013-10-31 15:50:00,71.1,47.5,30.19,NW,315,1.7,-999.0,43,-99.99,,,0.00,Acu-Link.com,2013-10-31 22:50:00,
2013-10-31 16:05:00,72.3,46.6,30.18,NW,315,2.7,-999.0,40,-99.99,,,0.00,Acu-Link.com,2013-10-31 23:05:00,
2013-10-31 16:21:00,71.2,46.3,30.17,NE,45,2.2,-999.0,41,-99.99,,,0.00,Acu-Link.com,2013-10-31 23:21:00,
2013-10-31 16:36:00,71.6,46.6,30.17,NW,315,0.0,-999.0,41,-99.99,,,0.00,Acu-Link.com,2013-10-31 23:36:00,
2013-10-31 16:51:00,72.7,47.0,30.16,NNE,22,1.7,-999.0,40,-99.99,,,0.00,Acu-Link.com,2013-10-31 23:51:00,
2013-10-31 17:06:00,71.4,48.9,30.16,WSW,247,2.2,-999.0,45,-99.99,,,0.00,Acu-Link.com,2013-11-01 00:06:00,
2013-10-31 17:21:00,70.7,47.1,30.16,SW,225,3.7,-999.0,43,-99.99,,,0.00,Acu-Link.com,2013-11-01 00:21:00,
2013-10-31 17:36:00,69.6,47.3,30.16,SW,225,1.7,-999.0,45,-99.99,,,0.00,Acu-Link.com,2013-11-01 00:36:00,
2013-10-31 17:52:00,68.4,46.8,30.17,SW,225,0.0,-999.0,46,-99.99,,,0.00,Acu-Link.com,2013-11-01 00:52:00,
2013-10-31 18:07:00,66.6,47.4,30.18,SW,225,0.0,-999.0,50,-99.99,,,0.00,Acu-Link.com,2013-11-01 01:07:00,
2013-10-31 18:22:00,64.6,47.6,30.19,SW,225,0.0,-999.0,54,-99.99,,,0.00,Acu-Link.com,2013-11-01 01:22:00,
2013-10-31 18:37:00,62.8,47.3,30.19,SW,225,0.0,-999.0,57,-99.99,,,0.00,Acu-Link.com,2013-11-01 01:37:00,
2013-10-31 18:52:00,61.3,47.3,30.20,SW,225,0.0,-999.0,60,-99.99,,,0.00,Acu-Link.com,2013-11-01 01:52:00,
2013-10-31 19:07:00,59.9,46.8,30.19,SW,225,0.0,-999.0,62,-99.99,,,0.00,Acu-Link.com,2013-11-01 02:07:00,
2013-10-31 19:23:00,58.3,46.6,30.19,SW,225,0.0,-999.0,65,-99.99,,,0.00,Acu-Link.com,2013-11-01 02:23:00,
2013-10-31 19:38:00,57.0,46.9,30.20,SW,225,0.0,-999.0,69,-99.99,,,0.00,Acu-Link.com,2013-11-01 02:38:00,
2013-10-31 19:54:00,55.9,46.3,30.20,SW,225,0.0,-999.0,70,-99.99,,,0.00,Acu-Link.com,2013-11-01 02:54:00,
2013-10-31 20:09:00,55.0,46.1,30.20,SW,225,0.0,-999.0,72,-99.99,,,0.00,Acu-Link.com,2013-11-01 03:09:00,
2013-10-31 20:24:00,54.3,46.2,30.21,SW,225,0.0,-999.0,74,-99.99,,,0.00,Acu-Link.com,2013-11-01 03:24:00,
2013-10-31 20:39:00,53.4,45.3,30.23,SW,225,0.0,-999.0,74,-99.99,,,0.00,Acu-Link.com,2013-11-01 03:39:00,
2013-10-31 20:54:00,52.3,45.3,30.23,SW,225,0.0,-999.0,77,-99.99,,,0.00,Acu-Link.com,2013-11-01 03:54:00,
2013-10-31 21:09:00,51.4,45.8,30.24,SW,225,0.0,-999.0,81,-99.99,,,0.00,Acu-Link.com,2013-11-01 04:09:00,
2013-10-31 21:24:00,51.8,45.2,30.24,SW,225,0.0,-999.0,78,-99.99,,,0.00,Acu-Link.com,2013-11-01 04:24:00,
2013-10-31 21:40:00,51.3,45.0,30.25,SW,225,0.0,-999.0,79,-99.99,,,0.00,Acu-Link.com,2013-11-01 04:40:00,
2013-10-31 21:55:00,50.9,45.3,30.26,SW,225,0.0,-999.0,81,-99.99,,,0.00,Acu-Link.com,2013-11-01 04:55:00,
2013-10-31 22:10:00,50.5,44.9,30.26,SW,225,0.0,-999.0,81,-99.99,,,0.00,Acu-Link.com,2013-11-01 05:10:00,
2013-10-31 22:26:00,50.4,45.4,30.26,SW,225,0.0,-999.0,83,-99.99,,,0.00,Acu-Link.com,2013-11-01 05:26:00,
2013-10-31 22:41:00,49.3,44.7,30.26,SW,225,0.0,-999.0,84,-99.99,,,0.00,Acu-Link.com,2013-11-01 05:41:00,
2013-10-31 22:56:00,48.9,44.6,30.27,SW,225,0.0,-999.0,85,-99.99,,,0.00,Acu-Link.com,2013-11-01 05:56:00,
2013-10-31 23:11:00,48.7,44.4,30.28,SW,225,0.0,-999.0,85,-99.99,,,0.00,Acu-Link.com,2013-11-01 06:11:00,
2013-10-31 23:27:00,48.6,44.6,30.28,SW,225,0.0,-999.0,86,-99.99,,,0.00,Acu-Link.com,2013-11-01 06:27:00,
2013-10-31 23:42:00,47.7,44.0,30.28,SW,225,0.0,-999.0,87,-99.99,,,0.00,Acu-Link.com,2013-11-01 06:42:00,
2013-10-31 23:57:00,47.7,44.3,30.28,SW,225,0.0,-999.0,88,-99.99,,,0.00,Acu-Link.com,2013-11-01 06:57:00,